createdAt,value
2022-11-05T00:00:39.253Z,999.1
2022-11-05T00:03:07.701Z,999.1
2022-11-05T00:05:35.837Z,999.2
2022-11-05T00:08:04.006Z,999.3
2022-11-05T00:13:08.964Z,999.3
2022-11-05T00:24:07.760Z,999.4
2022-11-05T00:29:04.257Z,999.5
2022-11-05T00:35:23.177Z,999.6
2022-11-05T00:37:51.394Z,999.6
2022-11-05T00:41:33.827Z,999.6
2022-11-05T00:45:16.200Z,999.6
2022-11-05T00:47:44.456Z,999.7
2022-11-05T00:51:26.871Z,999.7
2022-11-05T00:55:09.313Z,999.3
2022-11-05T00:57:37.552Z,999.8
2022-11-05T01:00:14.035Z,999.8
2022-11-05T01:05:10.557Z,999.8
2022-11-05T01:15:03.588Z,999.8
2022-11-05T01:26:18.996Z,999.9
2022-11-05T01:28:47.341Z,999.9
2022-11-05T01:31:15.529Z,999.9
2022-11-05T01:33:43.812Z,1000
2022-11-05T01:36:12.074Z,1000
2022-11-05T01:38:40.335Z,1000
2022-11-05T01:41:08.586Z,1000.1
2022-11-05T01:43:36.861Z,1000.1
2022-11-05T01:46:05.147Z,1000.1
2022-11-05T01:51:09.832Z,1000.1
2022-11-05T01:56:06.405Z,1000.1
2022-11-05T02:01:02.945Z,1000.1
2022-11-05T02:06:07.654Z,1000.2
2022-11-05T02:08:35.901Z,1000.2
2022-11-05T02:11:04.161Z,1000.3
2022-11-05T02:13:32.482Z,1000.2
2022-11-05T02:17:14.852Z,1000.3
2022-11-05T02:22:11.384Z,1000.3
2022-11-05T02:26:51.536Z,1000.3
2022-11-05T02:30:33.938Z,1000.3
2022-11-05T02:33:10.732Z,1000.4
2022-11-05T02:38:06.920Z,1000.4
2022-11-05T02:43:03.493Z,1000.4
2022-11-05T02:48:08.222Z,1000.5
2022-11-05T02:53:04.696Z,1000.5
2022-11-05T03:04:20.141Z,1000.7
2022-11-05T03:06:48.393Z,1000.7
2022-11-05T03:10:30.818Z,1000.7
2022-11-05T03:14:13.197Z,1000.7
2022-11-05T03:16:41.446Z,1000.7
2022-11-05T03:20:23.866Z,1000.7
2022-11-05T03:24:06.236Z,1000.7
2022-11-05T03:26:34.516Z,1000.7
2022-11-05T03:34:07.515Z,1000.9
2022-11-05T03:45:14.724Z,1001.1
2022-11-05T03:50:11.215Z,1001.1
2022-11-05T03:54:01.826Z,1001.1
2022-11-05T03:56:30.115Z,1001.2
2022-11-05T04:00:12.481Z,1001.3
2022-11-05T04:03:54.901Z,1001.3
2022-11-05T04:07:20.918Z,1001.4
2022-11-05T04:09:49.181Z,1001.4
2022-11-05T04:12:17.462Z,1001.3
2022-11-05T04:14:45.695Z,1001.3
2022-11-05T04:17:22.174Z,1001.4
2022-11-05T04:21:04.601Z,1001.4
2022-11-05T04:27:15.261Z,1001.4
2022-11-05T04:32:11.836Z,1001.5
2022-11-05T04:34:48.249Z,1001.5
2022-11-05T04:37:16.517Z,1001.4
2022-11-05T04:39:44.769Z,1001.4
2022-11-05T04:42:13.045Z,1001.5
2022-11-05T04:44:41.295Z,1001.5
2022-11-05T04:47:09.543Z,1001.1
2022-11-05T04:49:37.815Z,1001.5
2022-11-05T04:52:06.073Z,1001.5
2022-11-05T04:54:34.338Z,1001.5
2022-11-05T04:57:02.613Z,1001.6
2022-11-05T05:02:07.432Z,1001.6
2022-11-05T05:07:03.914Z,1001.7
2022-11-05T05:14:36.883Z,1001.8
2022-11-05T05:18:19.277Z,1001.8
2022-11-05T05:22:01.684Z,1001.9
2022-11-05T05:25:44.065Z,1002
2022-11-05T05:29:26.502Z,1002
2022-11-05T05:33:08.958Z,1001.8
2022-11-05T05:36:51.268Z,1002
2022-11-05T05:40:33.687Z,1002.1
2022-11-05T05:44:16.110Z,1002.1
2022-11-05T05:47:58.500Z,1002.1
2022-11-05T05:54:17.336Z,1002.1
2022-11-05T05:56:45.621Z,1002.2
2022-11-05T05:59:13.930Z,1002.2
2022-11-05T06:01:42.287Z,1002.2
2022-11-05T06:05:08.178Z,1002.3
2022-11-05T06:08:50.524Z,1002.3
2022-11-05T06:12:32.975Z,1002.5
2022-11-05T06:16:23.550Z,1002.5
2022-11-05T06:20:05.950Z,1002.6
2022-11-05T06:25:02.468Z,1002.6
2022-11-05T06:31:13.159Z,1002.8
2022-11-05T06:36:09.647Z,1002.4
2022-11-05T06:42:28.528Z,1002.9
2022-11-05T06:44:56.820Z,1002.9
2022-11-05T06:48:39.174Z,1003
2022-11-05T06:52:21.607Z,1003
2022-11-05T06:54:49.857Z,1003.1
2022-11-05T06:57:18.133Z,1003.1
2022-11-05T06:59:46.387Z,1003.1
2022-11-05T07:02:14.689Z,1003.2
2022-11-05T07:12:07.732Z,1003.3
2022-11-05T07:17:04.241Z,1003.4
2022-11-05T07:25:51.373Z,1003.5
2022-11-05T07:28:19.623Z,1003.6
2022-11-05T07:32:02.074Z,1003.6
2022-11-05T07:34:30.286Z,1003.7
2022-11-05T07:38:12.730Z,1003.7
2022-11-05T07:41:55.140Z,1003.7
2022-11-05T07:44:23.391Z,1003.7
2022-11-05T07:48:05.804Z,1003.8
2022-11-05T07:53:10.826Z,1003.8
2022-11-05T07:58:07.098Z,1003.8
2022-11-05T08:03:12.072Z,1004
2022-11-05T08:05:40.027Z,1004
2022-11-05T08:08:00.130Z,1004.1
2022-11-05T08:14:10.768Z,1004.2
2022-11-05T08:19:15.507Z,1004.2
2022-11-05T08:24:12.031Z,1004.2
2022-11-05T08:29:08.562Z,1004.2
2022-11-05T08:34:05.055Z,1004.3
2022-11-05T08:40:15.911Z,1004.4
2022-11-05T08:45:20.478Z,1004.5
2022-11-05T08:49:11.066Z,1004.5
2022-11-05T08:54:07.571Z,1004.5
2022-11-05T09:02:54.754Z,1004.6
2022-11-05T09:06:37.129Z,1004.6
2022-11-05T09:09:05.391Z,1004.7
2022-11-05T09:11:57.369Z,1004.6
2022-11-05T09:14:01.946Z,1004.7
2022-11-05T09:17:44.373Z,1004.7
2022-11-05T09:20:12.682Z,1004.7
2022-11-05T09:22:49.092Z,1004.8
2022-11-05T09:25:17.325Z,1004.8
2022-11-05T09:27:45.855Z,1004.8
2022-11-05T09:30:13.983Z,1004.8
2022-11-05T09:32:42.111Z,1004.8
2022-11-05T09:35:10.388Z,1004.8
2022-11-05T09:37:38.636Z,1004.8
2022-11-05T09:40:06.908Z,1004.8
2022-11-05T09:42:35.170Z,1004.8
2022-11-05T09:45:03.446Z,1004.8
2022-11-05T09:50:08.264Z,1004.9
2022-11-05T09:55:04.728Z,1005
2022-11-05T10:01:15.651Z,1005
2022-11-05T10:05:09.596Z,1005
2022-11-05T10:08:48.345Z,1005
2022-11-05T10:12:30.853Z,1005
2022-11-05T10:17:27.309Z,1005.1
2022-11-05T10:19:55.699Z,1005.1
2022-11-05T10:23:37.989Z,1005.1
2022-11-05T10:27:20.350Z,1005.2
2022-11-05T10:31:02.784Z,1005.2
2022-11-05T10:34:45.194Z,1005.2
2022-11-05T10:38:27.613Z,1005.2
2022-11-05T10:42:18.266Z,1005.3
2022-11-05T10:44:54.700Z,1005.3
2022-11-05T10:47:22.923Z,1005.3
2022-11-05T10:49:51.228Z,1005.3
2022-11-05T10:52:19.435Z,1005.3
2022-11-05T10:54:47.692Z,1005.3
2022-11-05T10:57:15.945Z,1005.3
2022-11-05T10:59:44.359Z,1005.3
2022-11-05T11:03:10.617Z,1005.2
2022-11-05T11:06:52.732Z,1005.3
2022-11-05T11:13:11.642Z,1005.2
2022-11-05T11:18:08.018Z,1005.2
2022-11-05T11:23:04.568Z,1005.2
2022-11-05T11:29:15.336Z,1005.2
2022-11-05T11:33:06.085Z,1005.2
2022-11-05T11:36:48.332Z,1005.2
2022-11-05T11:39:16.510Z,1005.2
2022-11-05T11:41:44.852Z,1005.2
2022-11-05T11:44:13.011Z,1005.2
2022-11-05T11:46:41.312Z,1005.2
2022-11-05T11:49:09.594Z,1004.9
2022-11-05T11:51:37.857Z,1005.2
2022-11-05T11:54:06.127Z,1005.2
2022-11-05T11:59:10.810Z,1005.1
2022-11-05T12:09:12.073Z,1005.1
2022-11-05T12:14:08.613Z,1005.1
2022-11-05T12:19:21.534Z,1005.1
2022-11-05T12:23:03.922Z,1005.1
2022-11-05T12:29:19.077Z,1005
2022-11-05T12:34:11.108Z,1005
2022-11-05T12:39:07.667Z,1005.1
2022-11-05T12:44:12.608Z,1005.1
2022-11-05T12:46:40.641Z,1005
2022-11-05T12:49:08.977Z,1004.7
2022-11-05T12:51:37.452Z,1005.1
2022-11-05T12:54:05.455Z,1005.2
2022-11-05T12:57:56.135Z,1005.2
2022-11-05T13:00:32.707Z,1005.3
2022-11-05T13:03:58.628Z,1005.3
2022-11-05T13:06:26.787Z,1005.3
2022-11-05T13:08:55.053Z,1005.3
2022-11-05T13:11:23.612Z,1005.3
2022-11-05T13:15:13.879Z,1005.2
2022-11-05T13:19:04.501Z,1005.2
2022-11-05T13:21:32.894Z,1005.2
2022-11-05T13:24:01.031Z,1005.2
2022-11-05T13:26:29.278Z,1005.1
2022-11-05T13:28:57.757Z,1005.1
2022-11-05T13:31:25.836Z,1005.1
2022-11-05T13:33:54.248Z,1005.1
2022-11-05T13:36:30.770Z,1005.2
2022-11-05T13:40:21.157Z,1005.1
2022-11-05T13:46:32.018Z,1005.1
2022-11-05T13:50:22.853Z,1005.1
2022-11-05T13:52:50.677Z,1005.2
2022-11-05T13:55:18.966Z,1005.1
2022-11-05T13:57:47.472Z,1005.2
2022-11-05T14:00:15.524Z,1005.2
2022-11-05T14:02:43.811Z,1005.1
2022-11-05T14:06:26.148Z,1005.2
2022-11-05T14:10:08.738Z,1005.2
2022-11-05T14:12:36.827Z,1005.1
2022-11-05T14:21:16.098Z,1005.1
2022-11-05T14:26:12.299Z,1005.2
2022-11-05T14:31:09.025Z,1005.2
2022-11-05T14:36:05.365Z,1005.2
2022-11-05T14:42:16.124Z,1005.3
2022-11-05T14:46:14.822Z,1005.2
2022-11-05T14:50:05.537Z,1005.2
2022-11-05T14:56:16.181Z,1005.2
2022-11-05T15:01:12.630Z,1005.2
2022-11-05T15:06:17.988Z,1004.9
2022-11-05T15:10:10.471Z,1005.1
2022-11-05T15:12:36.319Z,1005.1
2022-11-05T15:15:04.452Z,1005.1
2022-11-05T15:17:32.800Z,1005.1
2022-11-05T15:20:00.959Z,1005.3
2022-11-05T15:22:29.255Z,1005.4
2022-11-05T15:26:11.790Z,1005.4
2022-11-05T15:29:54.181Z,1005.5
2022-11-05T15:32:22.679Z,1005.4
2022-11-05T15:36:04.930Z,1005.5
2022-11-05T15:41:09.643Z,1005.3
2022-11-05T15:46:14.277Z,1005.5
2022-11-05T15:50:07.537Z,1005.5
2022-11-05T15:56:07.255Z,1005.5
2022-11-05T16:01:03.892Z,1005.6
2022-11-05T16:07:14.512Z,1005.6
2022-11-05T16:09:50.970Z,1005.6
2022-11-05T16:12:19.269Z,1005.5
2022-11-05T16:16:01.561Z,1005.6
2022-11-05T16:19:43.958Z,1005.6
2022-11-05T16:22:12.439Z,1005.7
2022-11-05T16:24:40.600Z,1005.6
2022-11-05T16:27:08.735Z,1005.6
2022-11-05T16:29:38.015Z,1005.6
2022-11-05T16:32:05.293Z,1005.6
2022-11-05T16:37:10.016Z,1005.7
2022-11-05T16:42:06.570Z,1005.8
2022-11-05T16:47:03.152Z,1005.7
2022-11-05T16:54:27.966Z,1005.7
2022-11-05T16:56:56.167Z,1005.7
2022-11-05T16:59:24.546Z,1005.7
2022-11-05T17:01:55.731Z,1005.7
2022-11-05T17:05:35.153Z,1005.8
2022-11-05T17:09:17.587Z,1005.9
2022-11-05T17:11:46.380Z,1005.9
2022-11-05T17:15:28.139Z,1005.9
2022-11-05T17:19:18.798Z,1005.9
2022-11-05T17:24:15.450Z,1005.9
2022-11-05T17:29:11.873Z,1006
2022-11-05T17:39:04.913Z,1006.2
2022-11-05T17:45:15.530Z,1006.2
2022-11-05T17:50:12.060Z,1006.3
2022-11-05T17:55:16.955Z,1006.2
2022-11-05T17:58:59.202Z,1006.2
2022-11-05T18:01:27.711Z,1006.3
2022-11-05T18:03:55.747Z,1006.4
2022-11-05T18:06:24.154Z,1006.5
2022-11-05T18:08:52.594Z,1006.4
2022-11-05T18:11:20.519Z,1006.3
2022-11-05T18:15:03.005Z,1006.4
2022-11-05T18:21:05.478Z,1006.4
2022-11-05T18:32:12.638Z,1006.4
2022-11-05T18:38:31.708Z,1006.3
2022-11-05T18:40:59.808Z,1006.3
2022-11-05T18:44:42.138Z,1006.4
2022-11-05T18:47:10.535Z,1006.4
2022-11-05T18:49:46.892Z,1006.4
2022-11-05T18:52:15.231Z,1006.4
2022-11-05T18:54:43.406Z,1006.4
2022-11-05T18:57:11.677Z,1006.5
2022-11-05T18:59:40.099Z,1006.4
2022-11-05T19:02:16.475Z,1006.4
2022-11-05T19:07:12.917Z,1006.4
2022-11-05T19:12:09.477Z,1006
2022-11-05T19:19:34.269Z,1006.4
2022-11-05T19:22:02.598Z,1006.4
2022-11-05T19:24:30.768Z,1006.4
2022-11-05T19:26:59.072Z,1006.4
2022-11-05T19:29:27.639Z,1006.4
2022-11-05T19:31:55.593Z,1006.4
2022-11-05T19:34:23.951Z,1006.5
2022-11-05T19:36:52.391Z,1006.4
2022-11-05T19:39:20.363Z,1006.4
2022-11-05T19:41:48.703Z,1006.4
2022-11-05T19:48:07.510Z,1006.3
2022-11-05T19:59:22.957Z,1006.3
2022-11-05T20:04:19.457Z,1006.3
2022-11-05T20:06:48.185Z,1006.4
2022-11-05T20:10:30.823Z,1006.3
2022-11-05T20:14:13.121Z,1006.3
2022-11-05T20:17:54.882Z,1006.3
2022-11-05T20:21:37.691Z,1006.4
2022-11-05T20:25:19.714Z,1006.3
2022-11-05T20:29:02.218Z,1006.4
2022-11-05T20:33:59.174Z,1006.4
2022-11-05T20:38:47.196Z,1006.4
2022-11-05T20:41:16.022Z,1006.4
2022-11-05T20:43:43.527Z,1006.4
2022-11-05T20:46:12.019Z,1006.5
2022-11-05T20:48:40.040Z,1006.5
2022-11-05T20:51:08.469Z,1006.4
2022-11-05T20:53:36.567Z,1006.4
2022-11-05T20:56:07.588Z,1006.4
2022-11-05T20:58:33.115Z,1006.4
2022-11-05T21:06:06.352Z,1006.4
2022-11-05T21:11:02.796Z,1006.5
2022-11-05T21:18:35.627Z,1006.4
2022-11-05T21:21:03.884Z,1006.4
2022-11-05T21:23:32.151Z,1006.4
2022-11-05T21:26:00.476Z,1006.4
2022-11-05T21:28:28.679Z,1006.3
2022-11-05T21:30:57.615Z,1006.4
2022-11-05T21:33:25.218Z,1006.3
2022-11-05T21:35:53.589Z,1006.3
2022-11-05T21:38:21.781Z,1006.3
2022-11-05T21:40:50.044Z,1006.4
2022-11-05T21:47:08.892Z,1006.3
2022-11-05T21:58:16.190Z,1006.4
2022-11-05T22:00:44.378Z,1006.3
2022-11-05T22:03:04.508Z,1006.3
2022-11-05T22:06:55.186Z,1006.4
2022-11-05T22:09:23.300Z,1006.4
2022-11-05T22:11:51.548Z,1006.3
2022-11-05T22:14:19.813Z,1006.3
2022-11-05T22:16:48.189Z,1006.3
2022-11-05T22:19:16.365Z,1006.3
2022-11-05T22:22:58.866Z,1006.3
2022-11-05T22:26:41.204Z,1006.3
2022-11-05T22:29:09.404Z,1005.9
2022-11-05T22:34:14.166Z,1006.4
2022-11-05T22:39:10.680Z,1006.3
2022-11-05T22:44:07.239Z,1006.2
2022-11-05T22:49:03.750Z,1006
2022-11-05T22:59:07.810Z,1006.1
2022-11-05T23:02:31.321Z,1006.1
2022-11-05T23:04:59.304Z,1006.2
2022-11-05T23:07:28.397Z,1006.1
2022-11-05T23:09:55.799Z,1006.1
2022-11-05T23:12:24.169Z,1006.2
2022-11-05T23:14:52.340Z,1006.2
2022-11-05T23:17:20.718Z,1006.1
2022-11-05T23:26:07.787Z,1006.1
2022-11-05T23:37:26.185Z,1005.8
2022-11-05T23:39:51.391Z,1005.9
2022-11-05T23:42:19.908Z,1005.9
2022-11-05T23:44:47.906Z,1005.9
2022-11-05T23:47:16.369Z,1006
2022-11-05T23:49:44.436Z,1006
2022-11-05T23:52:12.816Z,1006
2022-11-05T23:54:40.996Z,1006
2022-11-05T23:57:09.396Z,1005.7
2022-11-05T23:59:37.541Z,1006
